Time;durP1;ratioP1;P1;durP2;ratioP2;P2;SDS_P1;SDS_P2;PMS_P1;PMS_P2;Temp;Humidity;BMP_temperature;BMP_pressure;BME280_temperature;BME280_humidity;BME280_pressure;Samples;Min_cycle;Max_cycle;Signal;HPM_P1;HPM_P2
2021/12/20 00:02:20;;;;;;;26.80;5.68;;;6.40;99.90;;;;;;4915489;29;20538;-59
2021/12/20 00:04:50;;;;;;;33.45;6.68;;;6.30;99.90;;;;;;4948036;29;20458;-59
2021/12/20 00:07:17;;;;;;;28.02;5.70;;;6.30;99.90;;;;;;4932047;29;20061;-58
2021/12/20 00:09:44;;;;;;;26.50;5.78;;;6.30;99.90;;;;;;4946949;29;20122;-58
2021/12/20 00:12:10;;;;;;;28.35;6.32;;;6.30;99.90;;;;;;4947893;28;20172;-58
2021/12/20 00:14:36;;;;;;;28.35;5.63;;;6.30;99.90;;;;;;4932681;29;20134;-58
2021/12/20 00:17:02;;;;;;;30.02;6.20;;;6.20;99.90;;;;;;4949720;28;20454;-59
2021/12/20 00:19:28;;;;;;;29.23;6.10;;;6.30;99.90;;;;;;4950173;29;20498;-58
2021/12/20 00:21:55;;;;;;;27.85;5.40;;;6.30;99.90;;;;;;4916417;29;20142;-59
2021/12/20 00:24:21;;;;;;;32.53;5.63;;;6.20;99.90;;;;;;4950228;28;20474;-58
2021/12/20 00:26:47;;;;;;;27.85;5.55;;;6.30;99.90;;;;;;4944273;29;20141;-58
2021/12/20 00:29:13;;;;;;;29.48;7.22;;;6.30;99.90;;;;;;4946950;29;20047;-58
2021/12/20 00:31:39;;;;;;;24.42;4.72;;;6.30;99.90;;;;;;4946450;28;20058;-58
2021/12/20 00:34:05;;;;;;;34.20;5.30;;;6.20;99.90;;;;;;4946937;28;20051;-59
2021/12/20 00:36:32;;;;;;;40.00;6.47;;;6.20;99.90;;;;;;4946726;28;20093;-59
2021/12/20 00:41:42;;;;;;;29.98;5.40;;;6.20;99.90;;;;;;4946654;29;20517;-58
2021/12/20 00:44:09;;;;;;;23.75;5.07;;;6.20;99.90;;;;;;4947804;29;20042;-58
2021/12/20 00:46:35;;;;;;;36.05;5.88;;;6.20;99.90;;;;;;4945313;29;20055;-58
2021/12/20 00:49:01;;;;;;;27.73;5.38;;;6.20;99.90;;;;;;4947041;29;20039;-58
2021/12/20 00:51:27;;;;;;;24.40;5.63;;;6.20;99.90;;;;;;4948468;28;20075;-58
2021/12/20 00:53:53;;;;;;;24.30;5.63;;;6.20;99.90;;;;;;4949127;28;20090;-58
2021/12/20 00:56:19;;;;;;;25.33;5.38;;;6.20;99.90;;;;;;4915511;29;20051;-59
2021/12/20 00:58:45;;;;;;;20.92;5.15;;;6.20;99.90;;;;;;4947377;29;20384;-59
2021/12/20 01:01:12;;;;;;;30.02;5.85;;;6.20;99.90;;;;;;4962671;28;20562;-58
2021/12/20 01:03:41;;;;;;;25.85;6.10;;;6.20;99.90;;;;;;4946697;29;20110;-58
2021/12/20 01:06:07;;;;;;;26.70;5.38;;;6.20;99.90;;;;;;4947102;29;20046;-58
2021/12/20 01:08:37;;;;;;;27.65;5.68;;;6.20;99.90;;;;;;4931085;29;20050;-58
2021/12/20 01:11:04;;;;;;;24.63;4.68;;;6.20;99.90;;;;;;4948280;28;20458;-58
2021/12/20 01:13:32;;;;;;;22.77;5.65;;;6.10;99.90;;;;;;4930028;29;20054;-58
2021/12/20 01:16:02;;;;;;;20.05;4.72;;;6.10;99.90;;;;;;4947371;29;20051;-59
2021/12/20 01:18:28;;;;;;;31.70;6.25;;;6.10;99.90;;;;;;4946893;29;20054;-58
2021/12/20 01:20:54;;;;;;;26.35;4.95;;;6.10;99.90;;;;;;4914223;29;20043;-58
2021/12/20 01:23:20;;;;;;;24.98;5.57;;;6.10;99.90;;;;;;4946132;29;20565;-58
2021/12/20 01:25:47;;;;;;;35.70;5.70;;;6.10;99.90;;;;;;4947027;28;20084;-58
2021/12/20 01:28:13;;;;;;;25.33;5.05;;;6.10;99.90;;;;;;4946098;29;20075;-59
2021/12/20 01:30:41;;;;;;;27.58;5.03;;;6.00;99.90;;;;;;4946537;29;20058;-58
2021/12/20 01:33:09;;;;;;;23.65;4.55;;;6.00;99.90;;;;;;4946849;28;20055;-59
2021/12/20 01:35:36;;;;;;;30.52;5.28;;;6.00;99.90;;;;;;4948240;29;20556;-58
2021/12/20 01:38:02;;;;;;;23.88;5.15;;;6.00;99.90;;;;;;4949133;29;20069;-58
2021/12/20 01:40:29;;;;;;;29.25;5.35;;;6.00;99.90;;;;;;4935916;29;20051;-58
2021/12/20 01:42:57;;;;;;;29.15;5.38;;;5.90;99.90;;;;;;4933848;29;20059;-58
2021/12/20 01:45:25;;;;;;;22.20;4.95;;;5.90;99.90;;;;;;4950431;29;20173;-58
2021/12/20 01:48:02;;;;;;;23.63;5.10;;;5.90;99.90;;;;;;4964768;28;20502;-58
2021/12/20 01:51:00;;;;;;;26.73;5.43;;;5.90;99.90;;;;;;4951973;28;20519;-58
2021/12/20 01:53:27;;;;;;;32.33;5.70;;;5.90;99.90;;;;;;4948127;29;20047;-58
2021/12/20 01:55:55;;;;;;;26.55;5.25;;;5.90;99.90;;;;;;4950288;29;21369;-58
2021/12/20 01:58:23;;;;;;;22.92;4.80;;;5.90;99.90;;;;;;4966250;28;20069;-58
2021/12/20 02:03:42;;;;;;;29.02;5.05;;;5.80;99.90;;;;;;4949674;29;20131;-59
2021/12/20 02:06:33;;;;;;;23.52;5.25;;;5.80;99.90;;;;;;4951167;28;20117;-59
2021/12/20 02:08:59;;;;;;;25.50;6.28;;;5.80;99.90;;;;;;4945936;29;20054;-58
2021/12/20 02:11:26;;;;;;;24.38;4.63;;;5.80;99.90;;;;;;4949705;29;20063;-58
2021/12/20 02:13:53;;;;;;;27.65;4.60;;;5.80;99.90;;;;;;4949865;29;20118;-57
2021/12/20 02:16:19;;;;;;;29.13;4.60;;;5.80;99.90;;;;;;4951394;28;20074;-58
2021/12/20 02:18:46;;;;;;;24.02;4.88;;;5.80;99.90;;;;;;4949132;29;20482;-59
2021/12/20 02:21:12;;;;;;;19.25;4.47;;;5.80;99.90;;;;;;4949131;29;20364;-58
2021/12/20 02:23:38;;;;;;;28.52;4.90;;;5.70;99.90;;;;;;4950411;29;20109;-58
2021/12/20 02:26:06;;;;;;;29.98;5.13;;;5.80;99.90;;;;;;4950160;29;20047;-58
2021/12/20 02:28:38;;;;;;;24.08;4.47;;;5.80;99.90;;;;;;4965513;28;20398;-58
2021/12/20 02:38:59;;;;;;;20.20;3.92;;;5.80;99.90;;;;;;4947722;29;20118;-58
2021/12/20 02:41:30;;;;;;;24.48;4.70;;;5.80;99.90;;;;;;4949027;29;20090;-58
2021/12/20 02:44:03;;;;;;;24.52;4.00;;;5.70;99.90;;;;;;4950497;28;20510;-58
2021/12/20 02:49:19;;;;;;;18.92;4.07;;;5.70;99.90;;;;;;4951004;29;20043;-58
2021/12/20 02:51:49;;;;;;;22.45;4.32;;;5.60;99.90;;;;;;4948986;29;20047;-58
2021/12/20 02:54:15;;;;;;;24.42;4.05;;;5.60;99.90;;;;;;4949594;28;20149;-59
2021/12/20 02:56:44;;;;;;;25.70;4.72;;;5.50;99.90;;;;;;4962824;28;20410;-58
2021/12/20 02:59:11;;;;;;;21.33;3.95;;;5.50;99.90;;;;;;4950519;28;20585;-58
2021/12/20 03:01:42;;;;;;;14.13;2.80;;;5.50;99.90;;;;;;4948918;29;20103;-59
2021/12/20 03:04:09;;;;;;;21.98;3.83;;;5.50;99.90;;;;;;4934086;29;20058;-58
2021/12/20 03:06:39;;;;;;;19.55;3.97;;;5.40;99.90;;;;;;4930746;29;20082;-59
2021/12/20 03:09:08;;;;;;;17.48;3.45;;;5.40;99.90;;;;;;4932865;29;20051;-59
2021/12/20 03:11:36;;;;;;;19.02;3.53;;;5.40;99.90;;;;;;4949690;28;20089;-58
2021/12/20 03:14:20;;;;;;;16.75;3.33;;;5.40;99.90;;;;;;4949475;29;20055;-58
2021/12/20 03:16:47;;;;;;;17.58;3.65;;;5.30;99.90;;;;;;4948184;29;20130;-58
2021/12/20 03:19:13;;;;;;;18.48;3.72;;;5.30;99.90;;;;;;4949798;29;20130;-58
2021/12/20 03:21:39;;;;;;;15.25;3.20;;;5.20;99.90;;;;;;4964155;28;20473;-58
2021/12/20 03:24:06;;;;;;;16.33;3.00;;;5.20;99.90;;;;;;4946469;29;20131;-58
2021/12/20 03:26:32;;;;;;;21.75;3.92;;;5.10;99.90;;;;;;4950149;28;20520;-58
2021/12/20 03:28:59;;;;;;;23.52;3.67;;;5.10;99.90;;;;;;4931643;29;20297;-59
2021/12/20 03:31:25;;;;;;;13.80;2.80;;;5.00;99.90;;;;;;4948484;29;20043;-58
2021/12/20 03:33:51;;;;;;;17.75;3.65;;;5.00;99.90;;;;;;4930469;29;20051;-58
2021/12/20 03:36:17;;;;;;;24.25;3.83;;;5.00;99.90;;;;;;4948260;29;20114;-58
2021/12/20 03:38:43;;;;;;;13.18;2.90;;;4.90;99.90;;;;;;4949060;29;20422;-58
2021/12/20 03:41:10;;;;;;;18.85;3.55;;;4.90;99.90;;;;;;4964978;28;20058;-58
2021/12/20 03:43:36;;;;;;;19.85;3.53;;;4.80;99.90;;;;;;4947548;29;20130;-58
2021/12/20 03:46:03;;;;;;;20.95;4.40;;;4.70;99.90;;;;;;4947547;29;20153;-59
2021/12/20 03:48:29;;;;;;;18.55;3.90;;;4.60;99.90;;;;;;4951044;28;20071;-58
2021/12/20 03:51:00;;;;;;;14.95;3.30;;;4.60;99.90;;;;;;4948879;29;20051;-59
2021/12/20 03:53:26;;;;;;;16.42;3.38;;;4.50;99.90;;;;;;4949522;28;20045;-59
2021/12/20 03:55:52;;;;;;;15.20;3.03;;;4.50;99.90;;;;;;4947087;28;20054;-58
2021/12/20 03:58:18;;;;;;;15.93;3.15;;;4.40;99.90;;;;;;4948407;29;20051;-58
2021/12/20 04:00:44;;;;;;;14.68;2.60;;;4.40;99.90;;;;;;4947250;29;20043;-58
2021/12/20 04:03:13;;;;;;;15.27;3.08;;;4.30;99.90;;;;;;4949338;28;20099;-58
2021/12/20 04:05:40;;;;;;;19.23;2.40;;;4.20;99.90;;;;;;4932303;29;20047;-58
2021/12/20 04:08:07;;;;;;;16.15;3.40;;;4.20;99.90;;;;;;4932321;29;20410;-58
2021/12/20 04:10:34;;;;;;;17.15;2.95;;;4.20;99.90;;;;;;4948897;28;20051;-58
2021/12/20 04:13:00;;;;;;;14.80;2.85;;;4.20;99.90;;;;;;4949011;28;20053;-58
2021/12/20 04:15:26;;;;;;;17.40;2.92;;;4.10;99.90;;;;;;4947814;28;20057;-58
2021/12/20 04:17:53;;;;;;;15.27;2.75;;;4.10;99.90;;;;;;4950302;28;20051;-58
2021/12/20 04:20:19;;;;;;;16.30;3.45;;;4.00;99.90;;;;;;4948862;29;20503;-58
2021/12/20 04:22:45;;;;;;;17.50;2.65;;;4.00;99.90;;;;;;4950424;28;20525;-58
2021/12/20 04:25:11;;;;;;;25.17;3.65;;;4.10;99.90;;;;;;4933905;29;20143;-58
2021/12/20 04:27:38;;;;;;;13.65;3.40;;;4.00;99.90;;;;;;4950220;28;20453;-58
2021/12/20 04:30:10;;;;;;;18.08;3.78;;;4.00;99.90;;;;;;4965723;28;20083;-58
2021/12/20 04:32:41;;;;;;;16.30;3.90;;;4.00;99.90;;;;;;4948981;29;20035;-59
2021/12/20 04:35:08;;;;;;;17.05;4.22;;;4.10;99.90;;;;;;4947233;29;20051;-58
2021/12/20 04:37:35;;;;;;;14.13;3.63;;;4.00;99.90;;;;;;4950667;28;20045;-58
2021/12/20 04:40:06;;;;;;;19.58;3.40;;;4.00;99.90;;;;;;4948322;29;20043;-58
2021/12/20 04:42:33;;;;;;;20.87;3.90;;;4.00;99.90;;;;;;4949029;29;20143;-58
2021/12/20 04:44:59;;;;;;;16.10;3.10;;;4.00;99.90;;;;;;4949348;29;20782;-58
2021/12/20 04:47:26;;;;;;;19.65;3.65;;;4.00;99.90;;;;;;4950124;28;20051;-58
2021/12/20 04:49:52;;;;;;;20.25;3.45;;;3.90;99.90;;;;;;4934440;29;20053;-58
2021/12/20 04:52:18;;;;;;;19.80;3.47;;;3.90;99.90;;;;;;4933817;29;20043;-58
2021/12/20 04:54:45;;;;;;;16.55;3.05;;;3.80;99.90;;;;;;4950207;28;20059;-58
2021/12/20 04:57:11;;;;;;;15.85;3.50;;;3.80;99.90;;;;;;4951036;28;20050;-58
2021/12/20 04:59:37;;;;;;;14.77;3.22;;;3.80;99.90;;;;;;4949950;28;20094;-58
2021/12/20 05:02:03;;;;;;;18.15;3.78;;;3.70;99.90;;;;;;4965482;28;20483;-58
2021/12/20 05:04:29;;;;;;;18.08;3.47;;;3.70;99.90;;;;;;4949899;28;20138;-58
2021/12/20 05:06:55;;;;;;;17.05;3.15;;;3.60;99.90;;;;;;4964513;28;20089;-58
2021/12/20 05:09:25;;;;;;;14.82;3.63;;;3.60;99.90;;;;;;4949988;29;20487;-58
2021/12/20 05:12:00;;;;;;;15.63;3.35;;;3.60;99.90;;;;;;4949994;28;20051;-58
2021/12/20 05:14:26;;;;;;;14.18;2.63;;;3.50;99.90;;;;;;4950004;28;20097;-59
2021/12/20 05:16:52;;;;;;;12.68;3.08;;;3.50;99.90;;;;;;4931879;29;20082;-59
2021/12/20 05:19:18;;;;;;;14.93;3.38;;;3.40;99.90;;;;;;4964745;28;20051;-59
2021/12/20 05:21:45;;;;;;;10.07;2.80;;;3.30;99.90;;;;;;4965123;28;20055;-59
2021/12/20 05:24:11;;;;;;;19.15;3.22;;;3.30;99.90;;;;;;4950248;28;20044;-59
2021/12/20 05:26:37;;;;;;;14.63;2.90;;;3.20;99.90;;;;;;4949414;29;20122;-59
2021/12/20 05:29:06;;;;;;;13.63;2.90;;;3.20;99.90;;;;;;4932723;29;20043;-59
2021/12/20 05:31:34;;;;;;;13.55;3.05;;;3.00;99.90;;;;;;4963938;28;20118;-60
2021/12/20 05:34:01;;;;;;;16.58;2.55;;;3.00;99.90;;;;;;4962478;28;20047;-59
2021/12/20 05:36:27;;;;;;;14.73;3.42;;;2.90;99.90;;;;;;4917176;29;20110;-58
2021/12/20 05:38:53;;;;;;;19.23;3.22;;;2.90;99.90;;;;;;4947612;29;20050;-59
2021/12/20 05:41:19;;;;;;;15.15;3.38;;;2.90;99.90;;;;;;4948965;29;20127;-59
2021/12/20 05:43:46;;;;;;;13.10;2.85;;;2.80;99.90;;;;;;4950240;28;20051;-59
2021/12/20 05:46:12;;;;;;;19.25;2.95;;;2.70;99.90;;;;;;4950560;28;20106;-59
2021/12/20 05:48:39;;;;;;;12.13;2.40;;;2.60;99.90;;;;;;4948596;29;20418;-59
2021/12/20 05:51:05;;;;;;;13.57;3.17;;;2.60;99.90;;;;;;4947925;29;20094;-59
2021/12/20 05:53:31;;;;;;;18.35;2.65;;;2.60;99.90;;;;;;4929314;29;20057;-59
2021/12/20 05:55:58;;;;;;;11.93;3.80;;;2.50;99.90;;;;;;4949454;29;20513;-59
2021/12/20 05:58:24;;;;;;;15.48;2.88;;;2.50;99.90;;;;;;4947524;29;20407;-59
2021/12/20 06:00:50;;;;;;;11.23;2.67;;;2.40;99.90;;;;;;4950773;28;20294;-59
2021/12/20 06:03:16;;;;;;;9.63;2.75;;;2.40;99.90;;;;;;4932593;29;20542;-59
2021/12/20 06:05:42;;;;;;;13.93;2.65;;;2.40;99.90;;;;;;4949725;29;20039;-58
2021/12/20 06:08:10;;;;;;;12.55;3.00;;;2.30;99.90;;;;;;4917179;29;20047;-59
2021/12/20 06:10:36;;;;;;;12.77;2.88;;;2.20;99.90;;;;;;4947618;29;20388;-59
2021/12/20 06:13:06;;;;;;;12.73;2.80;;;2.20;99.90;;;;;;4945410;29;20054;-58
2021/12/20 06:15:32;;;;;;;13.80;3.97;;;2.20;99.90;;;;;;4947384;28;20070;-59
2021/12/20 06:17:59;;;;;;;13.02;4.72;;;2.10;99.90;;;;;;4930323;29;20046;-58
2021/12/20 06:20:25;;;;;;;18.63;5.20;;;2.10;99.90;;;;;;4947667;28;20063;-58
2021/12/20 06:22:52;;;;;;;15.82;4.55;;;2.10;99.90;;;;;;4951292;28;20464;-58
2021/12/20 06:25:19;;;;;;;17.63;4.25;;;2.00;99.90;;;;;;4950979;28;20047;-59
2021/12/20 06:27:47;;;;;;;12.38;4.00;;;2.00;99.90;;;;;;4933647;29;20047;-59
2021/12/20 06:30:14;;;;;;;20.75;4.95;;;2.00;99.90;;;;;;4952088;28;21068;-59
2021/12/20 06:32:42;;;;;;;17.83;4.28;;;1.90;99.90;;;;;;4935654;29;20158;-58
2021/12/20 06:35:13;;;;;;;12.52;3.42;;;1.90;99.90;;;;;;4935724;29;20051;-59
2021/12/20 06:37:42;;;;;;;12.25;4.60;;;1.90;99.90;;;;;;4953667;28;20458;-59
2021/12/20 06:40:10;;;;;;;17.60;3.97;;;1.90;99.90;;;;;;4949880;28;20047;-59
2021/12/20 06:42:38;;;;;;;20.23;5.18;;;1.80;99.90;;;;;;4936509;29;20043;-59
2021/12/20 06:45:08;;;;;;;18.63;4.35;;;1.90;99.90;;;;;;4950850;28;20055;-57
2021/12/20 06:47:35;;;;;;;17.00;4.10;;;1.80;99.90;;;;;;4952520;28;20053;-58
2021/12/20 06:50:03;;;;;;;18.27;4.20;;;1.80;99.90;;;;;;4948057;29;20511;-58
2021/12/20 06:52:29;;;;;;;16.60;4.07;;;1.80;99.90;;;;;;4966569;28;20047;-58
2021/12/20 06:54:55;;;;;;;17.67;3.83;;;1.70;99.90;;;;;;4948431;29;20232;-58
2021/12/20 06:57:22;;;;;;;12.07;3.63;;;1.70;99.90;;;;;;4951120;28;20130;-58
2021/12/20 06:59:48;;;;;;;16.35;3.38;;;1.70;99.90;;;;;;4965354;28;20048;-57
2021/12/20 07:02:14;;;;;;;20.80;3.97;;;1.70;99.90;;;;;;4948682;29;20043;-59
2021/12/20 07:04:40;;;;;;;17.10;4.25;;;1.60;99.90;;;;;;4948945;29;20051;-59
2021/12/20 07:07:07;;;;;;;22.52;3.80;;;1.60;99.90;;;;;;4949263;29;20058;-58
2021/12/20 07:09:33;;;;;;;14.07;3.20;;;1.50;99.90;;;;;;4948819;29;20129;-58
2021/12/20 07:12:00;;;;;;;11.50;3.00;;;1.50;99.90;;;;;;4950089;28;20059;-58
2021/12/20 07:14:27;;;;;;;11.90;3.90;;;1.50;99.90;;;;;;4948118;29;20134;-57
2021/12/20 07:16:54;;;;;;;18.08;4.88;;;1.50;99.90;;;;;;4917276;29;20051;-58
2021/12/20 07:19:20;;;;;;;16.85;4.45;;;1.40;99.90;;;;;;4947416;29;20095;-58
2021/12/20 07:21:47;;;;;;;15.00;4.55;;;1.40;99.90;;;;;;4948887;29;20398;-59
2021/12/20 07:24:13;;;;;;;20.38;4.78;;;1.40;99.90;;;;;;4949488;28;20390;-58
2021/12/20 07:26:44;;;;;;;15.13;4.47;;;1.30;99.90;;;;;;4964328;28;20039;-59
2021/12/20 07:29:10;;;;;;;16.33;4.53;;;1.30;99.90;;;;;;4952395;29;20071;-59
2021/12/20 07:31:36;;;;;;;14.20;3.95;;;1.30;99.90;;;;;;4952070;28;20545;-59
2021/12/20 07:34:04;;;;;;;15.20;4.30;;;1.30;99.90;;;;;;4948998;29;20121;-61
2021/12/20 07:36:30;;;;;;;13.90;3.20;;;1.20;99.90;;;;;;4950910;29;20051;-59
2021/12/20 07:38:56;;;;;;;20.88;4.57;;;1.20;99.90;;;;;;4951517;29;20101;-59
2021/12/20 07:41:23;;;;;;;11.32;3.55;;;1.30;99.90;;;;;;4951158;29;20557;-59
2021/12/20 07:43:50;;;;;;;13.82;3.90;;;1.20;99.90;;;;;;4952826;28;20055;-58
2021/12/20 07:46:18;;;;;;;14.90;3.60;;;1.20;99.90;;;;;;4951957;28;20043;-61
2021/12/20 07:48:44;;;;;;;20.35;4.60;;;1.20;99.90;;;;;;4951327;29;20050;-59
2021/12/20 07:51:10;;;;;;;15.55;4.10;;;1.20;99.90;;;;;;4952193;28;20039;-58
2021/12/20 07:53:36;;;;;;;14.68;3.60;;;1.10;99.90;;;;;;4934716;29;20118;-58
2021/12/20 07:56:04;;;;;;;14.15;4.22;;;1.20;99.90;;;;;;4952755;28;20105;-59
2021/12/20 07:58:31;;;;;;;22.23;4.45;;;1.10;99.90;;;;;;4951080;28;20414;-58
2021/12/20 08:00:58;;;;;;;14.90;2.97;;;1.10;99.90;;;;;;4949526;29;20046;-58
2021/12/20 08:03:25;;;;;;;9.52;2.90;;;1.10;99.90;;;;;;4949988;29;20039;-58
2021/12/20 08:05:51;;;;;;;14.63;4.45;;;1.10;99.90;;;;;;4946840;29;20062;-58
2021/12/20 08:08:17;;;;;;;21.30;4.20;;;1.10;99.90;;;;;;4948727;29;20044;-58
2021/12/20 08:10:44;;;;;;;13.32;3.80;;;1.10;99.90;;;;;;4931847;29;20067;-59
2021/12/20 08:13:12;;;;;;;15.70;3.80;;;1.10;99.90;;;;;;4951311;29;20055;-59
2021/12/20 08:15:39;;;;;;;12.82;3.83;;;1.20;99.90;;;;;;4949222;29;20471;-60
2021/12/20 08:18:06;;;;;;;16.23;4.18;;;1.20;99.90;;;;;;4963557;28;20422;-59
2021/12/20 08:20:32;;;;;;;15.88;4.50;;;1.40;99.90;;;;;;4948792;29;20043;-57
2021/12/20 08:22:58;;;;;;;11.27;3.95;;;1.50;99.90;;;;;;4949582;28;20649;-59
2021/12/20 08:25:25;;;;;;;19.05;4.80;;;1.50;99.90;;;;;;4949470;28;20138;-53
2021/12/20 08:27:51;;;;;;;15.05;5.22;;;1.60;99.90;;;;;;4949658;28;20088;-57
2021/12/20 08:30:21;;;;;;;14.05;3.28;;;1.70;99.90;;;;;;4948191;29;20047;-58
2021/12/20 08:32:47;;;;;;;12.70;3.95;;;1.80;99.90;;;;;;4946363;29;20047;-57
2021/12/20 08:35:14;;;;;;;12.13;3.78;;;1.90;99.90;;;;;;4950028;28;20072;-57
2021/12/20 08:37:41;;;;;;;18.13;7.20;;;2.10;99.90;;;;;;4948372;28;20060;-56
2021/12/20 08:40:11;;;;;;;12.77;2.90;;;2.70;99.90;;;;;;4946985;29;20566;-57
2021/12/20 08:42:40;;;;;;;10.85;3.13;;;3.30;99.90;;;;;;4949154;28;20055;-60
2021/12/20 08:45:07;;;;;;;9.00;2.60;;;3.60;99.90;;;;;;4949257;29;20562;-60
2021/12/20 08:47:33;;;;;;;10.13;2.72;;;3.70;99.90;;;;;;4947683;29;20054;-60
2021/12/20 08:50:06;;;;;;;13.23;4.07;;;4.10;99.90;;;;;;4949308;29;20051;-60
2021/12/20 08:52:32;;;;;;;13.43;3.95;;;4.40;99.90;;;;;;4948767;29;20080;-61
2021/12/20 08:54:59;;;;;;;7.50;3.05;;;5.00;99.90;;;;;;4947943;29;20153;-59
2021/12/20 08:57:25;;;;;;;9.45;3.38;;;5.20;99.90;;;;;;4932296;29;20051;-59
2021/12/20 08:59:51;;;;;;;11.07;3.33;;;5.40;99.90;;;;;;4932472;29;20423;-60
2021/12/20 09:02:17;;;;;;;7.72;2.70;;;5.20;99.90;;;;;;4948294;29;20055;-60
2021/12/20 09:04:43;;;;;;;10.65;3.15;;;5.30;99.90;;;;;;4947716;29;20434;-61
2021/12/20 09:07:15;;;;;;;8.95;2.92;;;5.30;99.90;;;;;;4915999;29;20046;-58
2021/12/20 09:09:44;;;;;;;12.23;3.50;;;5.30;99.90;;;;;;4946409;29;20081;-57
2021/12/20 09:12:10;;;;;;;14.23;9.48;;;5.00;99.90;;;;;;4949405;28;20043;-56
2021/12/20 09:14:38;;;;;;;9.75;2.90;;;4.80;99.90;;;;;;4949824;28;20074;-57
2021/12/20 09:17:04;;;;;;;7.72;3.33;;;4.90;99.90;;;;;;4946898;29;20047;-54
2021/12/20 09:19:30;;;;;;;11.30;3.20;;;4.80;99.90;;;;;;4947925;28;20043;-57
2021/12/20 09:21:57;;;;;;;7.60;2.45;;;4.90;99.90;;;;;;4948725;28;20398;-56
2021/12/20 09:24:23;;;;;;;10.55;2.42;;;5.00;99.90;;;;;;4947373;29;20445;-56
2021/12/20 09:26:49;;;;;;;10.48;2.75;;;4.90;99.90;;;;;;4931608;29;20047;-56
2021/12/20 09:29:15;;;;;;;12.13;2.33;;;4.90;99.90;;;;;;4963157;28;20062;-56
2021/12/20 09:31:42;;;;;;;11.85;3.17;;;5.00;99.90;;;;;;4931577;29;20395;-56
2021/12/20 09:34:10;;;;;;;13.70;2.90;;;5.00;99.90;;;;;;4948427;29;20047;-55
2021/12/20 09:36:36;;;;;;;11.80;3.15;;;5.10;99.90;;;;;;4948311;29;20098;-55
2021/12/20 09:39:07;;;;;;;10.50;3.10;;;5.30;99.90;;;;;;4947259;29;20043;-55
2021/12/20 09:44:07;;;;;;;14.10;3.42;;;5.60;99.90;;;;;;4943492;29;20142;-54
2021/12/20 09:46:33;;;;;;;12.00;3.50;;;5.70;99.90;;;;;;4948019;29;20118;-57
2021/12/20 09:49:00;;;;;;;13.55;3.65;;;5.60;99.90;;;;;;4948131;29;20222;-57
2021/12/20 09:51:26;;;;;;;11.77;3.70;;;5.40;99.90;;;;;;4942815;29;20040;-53
2021/12/20 09:53:55;;;;;;;12.98;3.65;;;5.30;99.90;;;;;;4917993;28;20115;-57
2021/12/20 09:56:28;;;;;;;14.18;3.78;;;5.20;99.90;;;;;;4951934;28;20058;-57
2021/12/20 09:58:58;;;;;;;27.98;13.40;;;5.50;99.90;;;;;;4952059;29;20052;-63
2021/12/20 10:01:26;;;;;;;19.73;5.18;;;5.80;99.90;;;;;;4952652;29;20051;-62
2021/12/20 10:03:53;;;;;;;18.40;4.22;;;5.90;99.90;;;;;;4952528;29;20538;-62
2021/12/20 10:06:20;;;;;;;17.65;3.85;;;6.10;99.90;;;;;;4951625;29;20094;-61
2021/12/20 10:08:52;;;;;;;14.82;4.32;;;6.30;99.90;;;;;;4934347;29;20054;-61
2021/12/20 10:11:19;;;;;;;20.23;4.10;;;6.40;99.90;;;;;;4949925;29;20059;-62
2021/12/20 10:13:45;;;;;;;12.80;3.90;;;6.50;99.90;;;;;;4949753;29;20671;-62
2021/12/20 10:16:20;;;;;;;16.05;4.30;;;6.60;99.90;;;;;;4951767;28;20090;-62
2021/12/20 10:18:47;;;;;;;22.98;5.35;;;6.80;99.90;;;;;;4951528;28;20074;-63
2021/12/20 10:21:15;;;;;;;17.17;4.40;;;6.90;99.90;;;;;;4952187;29;20510;-61
2021/12/20 10:23:48;;;;;;;18.48;3.88;;;7.50;99.90;;;;;;4950049;29;20141;-59
2021/12/20 10:26:19;;;;;;;15.95;4.07;;;8.00;99.90;;;;;;4951914;29;20039;-56
2021/12/20 10:28:47;;;;;;;19.15;4.88;;;8.30;99.90;;;;;;4952122;29;20046;-58
2021/12/20 10:31:18;;;;;;;16.27;4.22;;;8.40;99.90;;;;;;4951063;29;20039;-57
2021/12/20 10:33:58;;;;;;;19.35;4.78;;;8.30;99.90;;;;;;4951977;28;20050;-57
2021/12/20 10:36:25;;;;;;;12.80;3.88;;;8.10;99.90;;;;;;4949060;28;20059;-55
2021/12/20 10:38:56;;;;;;;16.38;4.00;;;8.30;99.90;;;;;;4953315;28;20399;-57
2021/12/20 10:41:35;;;;;;;15.45;3.17;;;8.30;99.90;;;;;;4917316;29;20043;-57
2021/12/20 10:44:13;;;;;;;15.98;3.75;;;8.00;99.90;;;;;;4934652;29;20066;-57
2021/12/20 10:46:47;;;;;;;15.15;4.25;;;8.20;99.90;;;;;;4944638;29;20039;-58
2021/12/20 10:49:18;;;;;;;17.58;3.40;;;8.00;99.90;;;;;;4966829;28;20047;-57
2021/12/20 10:51:52;;;;;;;17.63;5.28;;;8.10;99.90;;;;;;4951570;28;20515;-58
2021/12/20 10:54:21;;;;;;;12.02;3.50;;;8.60;99.90;;;;;;4948954;28;20059;-57
2021/12/20 10:56:55;;;;;;;12.68;3.45;;;9.00;99.90;;;;;;4947014;28;20059;-57
2021/12/20 10:59:24;;;;;;;13.85;4.65;;;9.50;99.90;;;;;;4949027;28;20047;-58
2021/12/20 11:04:28;;;;;;;14.38;4.05;;;10.00;99.90;;;;;;4948504;29;20039;-64
2021/12/20 11:10:04;;;;;;;10.38;3.00;;;10.60;99.90;;;;;;4954537;28;20126;-63
2021/12/20 11:12:33;;;;;;;15.82;3.45;;;10.40;99.90;;;;;;4951917;28;20557;-63
2021/12/20 11:15:03;;;;;;;14.80;3.55;;;10.50;99.90;;;;;;4937739;29;20347;-62
2021/12/20 11:17:30;;;;;;;10.68;3.20;;;10.30;99.90;;;;;;4963827;28;20047;-63
2021/12/20 11:19:58;;;;;;;14.23;3.58;;;10.10;99.90;;;;;;4948434;28;20137;-58
2021/12/20 11:22:25;;;;;;;8.32;2.33;;;10.00;99.90;;;;;;4942483;28;20055;-61
2021/12/20 11:25:11;;;;;;;10.90;3.05;;;9.80;99.90;;;;;;4932387;29;20080;-61
2021/12/20 11:27:43;;;;;;;13.13;2.90;;;9.70;99.90;;;;;;4941501;29;20051;-60
2021/12/20 11:30:12;;;;;;;10.20;2.88;;;9.90;99.90;;;;;;4948296;28;20054;-60
2021/12/20 11:32:40;;;;;;;9.38;2.58;;;9.50;99.90;;;;;;4947190;28;20047;-61
2021/12/20 11:35:07;;;;;;;8.38;2.38;;;9.10;99.90;;;;;;4951267;29;20462;-61
2021/12/20 11:37:34;;;;;;;9.90;2.97;;;9.30;99.90;;;;;;4949228;28;20383;-61
2021/12/20 11:40:05;;;;;;;9.45;2.30;;;9.70;99.90;;;;;;4965562;28;20047;-61
2021/12/20 11:42:32;;;;;;;;;;;9.60;99.90;;;;;;4952961;28;20102;-61
2021/12/20 11:45:00;;;;;;;10.32;2.42;;;9.30;99.90;;;;;;4952587;29;19923;-61
2021/12/20 11:47:51;;;;;;;9.30;1.95;;;9.40;99.90;;;;;;4950913;29;20047;-61
2021/12/20 11:50:20;;;;;;;8.98;2.90;;;10.10;99.90;;;;;;4953079;28;20134;-61
2021/12/20 11:52:48;;;;;;;8.73;2.75;;;10.40;99.90;;;;;;4950784;28;20049;-62
2021/12/20 11:55:14;;;;;;;7.75;2.25;;;10.20;99.90;;;;;;4937063;28;20062;-61
2021/12/20 11:57:51;;;;;;;7.63;1.80;;;10.50;99.90;;;;;;4952018;29;20047;-61
2021/12/20 12:00:27;;;;;;;7.90;2.47;;;10.70;99.90;;;;;;4958389;28;20051;-61
2021/12/20 12:02:58;;;;;;;9.57;2.40;;;10.50;99.90;;;;;;4966455;28;20057;-61
2021/12/20 12:05:48;;;;;;;7.35;2.17;;;10.60;99.90;;;;;;4952745;28;20490;-61
2021/12/20 12:08:40;;;;;;;9.85;2.63;;;10.90;98.20;;;;;;4950208;29;20043;-61
2021/12/20 12:11:09;;;;;;;8.63;2.30;;;11.30;99.90;;;;;;4952193;28;20414;-61
2021/12/20 12:13:57;;;;;;;9.07;1.80;;;11.40;99.90;;;;;;4934214;29;20055;-61
2021/12/20 12:16:46;;;;;;;7.65;1.92;;;11.40;99.90;;;;;;4952184;28;20501;-60
2021/12/20 12:19:12;;;;;;;7.65;2.03;;;11.80;99.90;;;;;;4933363;29;20058;-61
2021/12/20 12:21:40;;;;;;;6.00;1.77;;;12.10;99.90;;;;;;4949368;29;20134;-61
2021/12/20 12:24:14;;;;;;;9.23;2.00;;;12.10;99.90;;;;;;4949480;28;20506;-61
2021/12/20 12:26:47;;;;;;;9.88;1.83;;;12.40;91.70;;;;;;4951517;28;20125;-61
2021/12/20 12:29:19;;;;;;;8.25;2.05;;;12.60;92.80;;;;;;4966489;28;20039;-61
2021/12/20 12:31:53;;;;;;;;;;;13.00;94.90;;;;;;4952136;28;20138;-62
2021/12/20 12:34:21;;;;;;;7.20;2.13;;;13.20;84.70;;;;;;4944455;29;19949;-61
2021/12/20 12:36:47;;;;;;;5.90;2.00;;;13.10;99.90;;;;;;4950317;29;20055;-62
2021/12/20 12:39:27;;;;;;;7.82;2.05;;;12.80;94.00;;;;;;4950965;28;20047;-61
2021/12/20 12:42:00;;;;;;;7.28;1.88;;;12.40;84.70;;;;;;4950824;28;20410;-61
2021/12/20 12:44:29;;;;;;;7.18;1.52;;;12.00;85.90;;;;;;4933030;29;20542;-61
2021/12/20 12:47:07;;;;;;;4.70;1.45;;;11.80;80.00;;;;;;4947994;29;20051;-61
2021/12/20 12:49:44;;;;;;;5.03;1.33;;;11.40;78.20;;;;;;4948559;29;20104;-61
2021/12/20 12:52:17;;;;;;;5.75;1.60;;;11.20;85.80;;;;;;4932851;29;20487;-61
2021/12/20 12:54:54;;;;;;;12.65;2.55;;;11.10;78.00;;;;;;4948871;29;20069;-62
2021/12/20 12:57:20;;;;;;;7.55;1.88;;;11.20;85.50;;;;;;4948138;29;20082;-62
2021/12/20 12:59:57;;;;;;;6.40;1.65;;;11.50;83.90;;;;;;4961270;28;20063;-62
2021/12/20 13:02:29;;;;;;;5.82;1.90;;;11.70;82.80;;;;;;4932104;29;20395;-63
2021/12/20 13:05:19;;;;;;;8.77;2.60;;;12.40;68.60;;;;;;4931915;29;20549;-57
2021/12/20 13:07:48;;;;;;;7.18;1.58;;;12.80;69.10;;;;;;4938748;29;20043;-62
2021/12/20 13:10:21;;;;;;;5.25;1.60;;;13.70;67.80;;;;;;4950752;28;20170;-57
2021/12/20 13:12:57;;;;;;;6.70;1.50;;;13.40;67.20;;;;;;4917700;29;20101;-57
2021/12/20 13:15:34;;;;;;;7.55;1.30;;;13.20;66.70;;;;;;4933151;29;20077;-56
2021/12/20 13:18:09;;;;;;;3.50;1.27;;;13.10;64.30;;;;;;4943161;28;20047;-57
2021/12/20 13:23:33;;;;;;;4.60;1.13;;;13.50;60.90;;;;;;4948958;29;20165;-60